createdAt,value
2022-11-07T06:03:09.932Z,100736.69
2022-11-07T06:08:30.957Z,100735.13
2022-11-07T06:13:53.471Z,100736.00
2022-11-07T06:19:14.179Z,100750.97
2022-11-07T06:24:35.089Z,100754.13
2022-11-07T06:29:55.737Z,100752.06
2022-11-07T06:35:16.644Z,100760.56
2022-11-07T06:40:38.480Z,100750.50
2022-11-07T06:46:02.805Z,100764.28
2022-11-07T06:51:23.742Z,100774.78
2022-11-07T06:56:44.481Z,100772.69
2022-11-07T07:02:05.646Z,100773.66
2022-11-07T07:07:26.212Z,100776.13
2022-11-07T07:12:47.065Z,100781.03
2022-11-07T07:18:08.008Z,100780.56
2022-11-07T07:23:28.797Z,100792.88
2022-11-07T07:28:49.668Z,100801.81
2022-11-07T07:34:11.045Z,100801.72
2022-11-07T07:39:32.016Z,100806.81
2022-11-07T07:44:52.964Z,100800.34
2022-11-07T07:50:14.043Z,100797.59
2022-11-07T07:55:35.605Z,100810.69
2022-11-07T08:00:58.734Z,100803.31
2022-11-07T08:06:19.622Z,100795.03
2022-11-07T08:11:40.425Z,100810.41
2022-11-07T08:17:01.262Z,100795.16
2022-11-07T08:22:22.400Z,100800.97
2022-11-07T08:27:43.246Z,100811.53
2022-11-07T08:33:04.271Z,100806.50
2022-11-07T08:38:25.543Z,100827.41
2022-11-07T08:43:47.527Z,100816.84
2022-11-07T08:49:08.691Z,100815.88
2022-11-07T08:54:29.474Z,100821.75
2022-11-07T08:59:50.307Z,100820.78
2022-11-07T09:05:11.169Z,100815.16
2022-11-07T09:10:31.970Z,100830.72
2022-11-07T09:15:57.041Z,100823.34
2022-11-07T09:21:22.478Z,100831.75
2022-11-07T09:26:43.669Z,100834.81
2022-11-07T09:32:17.508Z,100838.88
2022-11-07T09:37:45.673Z,100838.06
2022-11-07T09:43:24.627Z,100839.66
2022-11-07T09:48:50.784Z,100843.66
2022-11-07T09:54:22.079Z,100836.22
2022-11-07T09:59:44.989Z,100834.97
2022-11-07T10:05:06.242Z,100844.03
2022-11-07T10:10:39.305Z,100850.50
2022-11-07T10:16:09.160Z,100853.94
2022-11-07T10:21:41.014Z,100862.00
2022-11-07T10:27:02.584Z,100859.50
2022-11-07T10:32:23.444Z,100859.66
2022-11-07T10:38:04.792Z,100854.69
2022-11-07T10:43:36.681Z,100849.34
2022-11-07T10:49:00.392Z,100830.41
2022-11-07T10:54:31.352Z,100830.81
2022-11-07T10:59:52.371Z,100824.81
2022-11-07T11:05:28.179Z,100820.94
2022-11-07T11:10:50.435Z,100820.44
2022-11-07T11:16:14.277Z,100811.59
2022-11-07T11:21:40.916Z,100816.28
2022-11-07T11:27:09.225Z,100811.75
2022-11-07T11:32:41.231Z,100812.59
2022-11-07T11:38:21.252Z,100816.13
2022-11-07T11:43:49.118Z,100815.06
2022-11-07T11:49:19.273Z,100818.34
2022-11-07T11:54:40.431Z,100814.25
2022-11-07T12:00:13.800Z,100812.94
2022-11-07T12:06:02.921Z,100812.19
2022-11-07T12:11:38.205Z,100813.56
2022-11-07T12:17:03.984Z,100813.44
2022-11-07T12:22:56.267Z,100801.22
2022-11-07T12:28:20.206Z,100807.38
2022-11-07T12:34:04.628Z,100809.00
2022-11-07T12:39:34.633Z,100798.06
2022-11-07T12:45:07.939Z,100801.25
2022-11-07T12:50:56.096Z,100798.31
2022-11-07T12:56:24.293Z,100802.97
2022-11-07T13:02:05.259Z,100801.66
2022-11-07T13:07:33.414Z,100801.81
2022-11-07T13:13:15.917Z,100807.50
2022-11-07T13:18:37.274Z,100812.59
2022-11-07T13:24:05.971Z,100810.97
2022-11-07T13:29:36.055Z,100826.16
2022-11-07T13:35:00.556Z,100818.47
2022-11-07T13:40:27.210Z,100825.03
2022-11-07T13:46:00.045Z,100808.06
2022-11-07T13:51:20.889Z,100820.06
2022-11-07T13:56:59.434Z,100816.00
2022-11-07T14:02:22.185Z,100818.53
2022-11-07T14:07:54.319Z,100810.09
2022-11-07T14:13:39.617Z,100809.56
2022-11-07T14:19:07.397Z,100813.84
2022-11-07T14:24:32.706Z,100819.56
2022-11-07T14:30:01.991Z,100817.06
2022-11-07T14:35:33.367Z,100815.94
2022-11-07T14:41:01.077Z,100811.22
2022-11-07T14:46:24.257Z,100809.31
2022-11-07T14:51:45.104Z,100808.16
2022-11-07T14:57:07.123Z,100806.09
2022-11-07T15:02:33.083Z,100803.03
2022-11-07T15:07:55.047Z,100796.78
2022-11-07T15:13:24.963Z,100796.41
2022-11-07T15:18:48.585Z,100808.13
2022-11-07T15:24:26.635Z,100818.13
2022-11-07T15:29:58.455Z,100819.72
2022-11-07T15:35:42.988Z,100823.03
2022-11-07T15:41:01.349Z,100827.22
2022-11-07T15:46:26.999Z,100817.50
2022-11-07T15:51:47.838Z,100818.28
2022-11-07T15:57:11.432Z,100829.22
2022-11-07T16:02:32.540Z,100828.25
2022-11-07T16:07:53.168Z,100841.75
2022-11-07T16:13:15.041Z,100830.50
2022-11-07T16:18:44.850Z,100829.53
2022-11-07T16:24:05.933Z,100822.38
2022-11-07T16:29:26.479Z,100834.25
2022-11-07T16:34:47.683Z,100826.97
2022-11-07T16:40:13.464Z,100824.28
2022-11-07T16:45:35.932Z,100809.88
2022-11-07T16:50:57.046Z,100819.78
2022-11-07T16:56:26.848Z,100817.31
2022-11-07T17:01:48.960Z,100825.44
2022-11-07T17:07:14.825Z,100827.19
2022-11-07T17:12:35.980Z,100838.31
2022-11-07T17:18:00.587Z,100838.66
2022-11-07T17:23:29.870Z,100830.31
2022-11-07T17:28:52.960Z,100842.72
2022-11-07T17:34:14.159Z,100839.53
2022-11-07T17:39:35.028Z,100847.41
2022-11-07T17:44:55.735Z,100854.16
2022-11-07T17:50:19.076Z,100859.84
2022-11-07T17:55:40.359Z,100867.22
2022-11-07T18:01:01.180Z,100867.88
2022-11-07T18:06:23.476Z,100872.47
2022-11-07T18:11:44.890Z,100876.81
2022-11-07T18:17:06.214Z,100882.41
2022-11-07T18:22:27.142Z,100883.31
2022-11-07T18:27:48.533Z,100884.91
2022-11-07T18:33:09.305Z,100888.53
2022-11-07T18:38:30.914Z,100885.09
2022-11-07T18:43:54.148Z,100898.03
2022-11-07T18:49:16.053Z,100889.38
2022-11-07T18:54:37.064Z,100891.84
2022-11-07T18:59:57.682Z,100892.56
2022-11-07T19:05:18.556Z,100895.19
2022-11-07T19:10:39.382Z,100891.13
2022-11-07T19:16:00.901Z,100892.91
2022-11-07T19:21:23.324Z,100900.53
2022-11-07T19:26:44.018Z,100899.31
2022-11-07T19:32:06.038Z,100899.31
2022-11-07T19:37:26.904Z,100897.50
2022-11-07T19:42:47.844Z,100904.97
2022-11-07T19:48:08.627Z,100909.13
2022-11-07T19:53:29.501Z,100910.44
2022-11-07T19:58:50.349Z,100906.81
2022-11-07T20:04:11.213Z,100901.69
2022-11-07T20:09:32.147Z,100912.56
2022-11-07T20:14:52.947Z,100916.63
2022-11-07T20:20:14.082Z,100912.91
2022-11-07T20:25:35.244Z,100917.25
2022-11-07T20:30:56.165Z,100914.94
2022-11-07T20:36:17.340Z,100919.22
2022-11-07T20:41:41.360Z,100913.88
2022-11-07T20:47:02.239Z,100919.75
2022-11-07T20:52:22.960Z,100928.06
2022-11-07T20:57:44.111Z,100929.56
2022-11-07T21:03:05.128Z,100929.31
2022-11-07T21:08:25.908Z,100937.88
2022-11-07T21:13:52.685Z,100937.69
2022-11-07T21:19:15.935Z,100938.50
2022-11-07T21:24:36.728Z,100936.19
2022-11-07T21:29:57.363Z,100937.88
2022-11-07T21:35:18.162Z,100940.53
2022-11-07T21:40:39.542Z,100944.88
2022-11-07T21:46:13.434Z,100943.38
2022-11-07T21:51:36.053Z,100950.44
2022-11-07T21:56:56.943Z,100941.06
2022-11-07T22:02:17.992Z,100937.88
2022-11-07T22:07:38.648Z,100944.91
2022-11-07T22:13:00.390Z,100934.78
2022-11-07T22:18:22.798Z,100932.41
2022-11-07T22:23:43.800Z,100936.56
